createdAt,value
2019-04-20T00:00:07.624Z,50.69
2019-04-20T00:01:05.215Z,50.99
2019-04-20T00:02:07.231Z,51.31
2019-04-20T00:03:03.796Z,50.69
2019-04-20T00:04:03.185Z,50.38
2019-04-20T00:05:03.408Z,50.59
2019-04-20T00:06:03.527Z,50.79
2019-04-20T00:07:03.931Z,50.69
2019-04-20T00:08:09.089Z,50.69
2019-04-20T00:09:11.847Z,50.82
2019-04-20T00:10:10.938Z,50.71
2019-04-20T00:11:10.681Z,51.02
2019-04-20T00:12:10.743Z,51.12
2019-04-20T00:13:16.587Z,51.12
2019-04-20T00:14:08.959Z,51.12
2019-04-20T00:15:04.825Z,51.43
2019-04-20T00:16:04.033Z,51.53
2019-04-20T00:17:03.031Z,51.53
2019-04-20T00:18:05.383Z,51.64
2019-04-20T00:19:05.218Z,51.95
2019-04-20T00:20:09.651Z,52.15
2019-04-20T00:21:08.643Z,52.36
2019-04-20T00:22:07.937Z,51.87
2019-04-20T00:23:03.798Z,52.07
2019-04-20T00:24:10.326Z,52.15
2019-04-20T00:25:09.020Z,52.38
2019-04-20T00:26:13.188Z,52.17
2019-04-20T00:27:30.327Z,51.76
2019-04-20T00:28:19.898Z,52.89
2019-04-20T00:29:21.708Z,53.30
2019-04-20T00:30:24.848Z,52.89
2019-04-20T00:31:20.729Z,53.10
2019-04-20T00:32:15.569Z,53.20
2019-04-20T00:33:14.705Z,53.30
2019-04-20T00:34:13.164Z,53.00
2019-04-20T00:35:04.131Z,53.51
2019-04-20T00:36:03.235Z,53.53
2019-04-20T00:37:02.483Z,53.20
2019-04-20T00:38:03.375Z,53.64
2019-04-20T00:39:06.410Z,53.02
2019-04-20T00:40:04.233Z,53.23
2019-04-20T00:41:07.172Z,53.23
2019-04-20T00:42:06.574Z,53.43
2019-04-20T00:43:04.592Z,53.53
2019-04-20T00:44:07.225Z,53.33
2019-04-20T00:45:10.717Z,53.12
2019-04-20T00:46:08.249Z,53.53
2019-04-20T00:47:18.126Z,53.85
2019-04-20T00:48:18.417Z,53.23
2019-04-20T00:49:20.669Z,53.53
2019-04-20T00:50:22.845Z,53.66
2019-04-20T00:51:25.894Z,53.87
2019-04-20T00:52:31.107Z,53.66
2019-04-20T00:53:14.874Z,53.77
2019-04-20T00:54:04.014Z,53.35
2019-04-20T00:55:02.409Z,54.49
2019-04-20T00:56:03.401Z,54.69
2019-04-20T00:57:13.255Z,54.79
2019-04-20T00:58:14.755Z,54.49
2019-04-20T00:59:18.164Z,54.79
2019-04-20T01:00:21.952Z,54.82
2019-04-20T01:01:20.279Z,54.79
2019-04-20T01:02:19.408Z,54.92
2019-04-20T01:03:20.736Z,55.74
2019-04-20T01:04:20.291Z,54.61
2019-04-20T01:05:17.975Z,54.79
2019-04-20T01:06:24.790Z,55.00
2019-04-20T01:07:16.398Z,54.49
2019-04-20T01:08:06.056Z,54.28
2019-04-20T01:09:03.293Z,54.72
2019-04-20T01:10:02.681Z,54.51
2019-04-20T01:11:02.712Z,54.72
2019-04-20T01:12:05.173Z,54.61
2019-04-20T01:13:08.730Z,54.61
2019-04-20T01:14:07.922Z,54.82
2019-04-20T01:15:07.411Z,55.13
2019-04-20T01:16:08.741Z,54.82
2019-04-20T01:17:11.646Z,55.23
2019-04-20T01:18:03.034Z,54.94
2019-04-20T01:19:02.044Z,54.94
2019-04-20T01:20:02.104Z,54.94
2019-04-20T01:21:06.743Z,55.87
2019-04-20T01:22:09.145Z,55.98
2019-04-20T01:23:08.730Z,55.77
2019-04-20T01:24:05.389Z,55.77
2019-04-20T01:25:11.261Z,55.66
2019-04-20T01:26:08.881Z,55.59
2019-04-20T01:27:05.658Z,55.87
2019-04-20T01:28:20.063Z,55.66
2019-04-20T01:29:12.126Z,55.66
2019-04-20T01:30:13.047Z,55.38
2019-04-20T01:31:15.708Z,55.28
2019-04-20T01:32:15.614Z,56.72
2019-04-20T01:33:16.407Z,56.41
2019-04-20T01:34:14.632Z,55.18
2019-04-20T01:35:19.701Z,55.80
2019-04-20T01:36:24.009Z,56.21
2019-04-20T01:37:19.531Z,56.41
2019-04-20T01:38:20.922Z,55.80
2019-04-20T01:39:13.621Z,56.31
2019-04-20T01:40:05.871Z,56.72
2019-04-20T01:41:01.829Z,56.34
2019-04-20T01:42:02.391Z,57.44
2019-04-20T01:43:01.802Z,57.16
2019-04-20T01:44:02.598Z,57.47
2019-04-20T01:45:05.552Z,56.95
2019-04-20T01:46:11.182Z,56.85
2019-04-20T01:47:06.269Z,57.26
2019-04-20T01:48:03.087Z,57.50
2019-04-20T01:49:07.906Z,57.26
2019-04-20T01:50:08.575Z,57.16
2019-04-20T01:51:10.026Z,57.50
2019-04-20T01:52:13.052Z,57.91
2019-04-20T01:53:14.938Z,57.70
2019-04-20T01:54:17.728Z,58.01
2019-04-20T01:55:21.193Z,57.50
2019-04-20T01:56:18.129Z,58.32
2019-04-20T01:57:11.680Z,57.50
2019-04-20T01:58:25.481Z,58.01
2019-04-20T01:59:16.460Z,58.35
2019-04-20T02:00:10.707Z,57.93
2019-04-20T02:01:09.724Z,58.65
2019-04-20T02:02:07.807Z,58.97
2019-04-20T02:03:05.574Z,58.69
2019-04-20T02:04:03.327Z,59.72
2019-04-20T02:05:11.325Z,60.02
2019-04-20T02:06:08.447Z,59.82
2019-04-20T02:07:04.937Z,59.51
2019-04-20T02:08:01.919Z,59.61
2019-04-20T02:09:06.729Z,60.02
2019-04-20T02:10:06.340Z,60.23
2019-04-20T02:11:05.481Z,60.02
2019-04-20T02:12:08.256Z,60.85
2019-04-20T02:13:04.733Z,60.54
2019-04-20T02:14:04.936Z,60.77
2019-04-20T02:15:04.698Z,60.77
2019-04-20T02:16:13.935Z,60.77
2019-04-20T02:17:09.538Z,60.47
2019-04-20T02:18:16.470Z,60.77
2019-04-20T02:19:21.446Z,60.98
2019-04-20T02:20:23.343Z,60.57
2019-04-20T02:21:19.828Z,60.77
2019-04-20T02:22:13.602Z,60.47
2019-04-20T02:23:14.564Z,60.57
2019-04-20T02:24:05.727Z,60.88
2019-04-20T02:25:01.707Z,60.98
2019-04-20T02:26:01.401Z,60.98
2019-04-20T02:27:01.985Z,61.19
2019-04-20T02:28:18.946Z,61.19
2019-04-20T02:29:24.877Z,60.98
2019-04-20T02:30:30.114Z,62.04
2019-04-20T02:31:52.929Z,61.80
2019-04-20T02:32:33.277Z,62.01
2019-04-20T02:33:47.523Z,61.70
2019-04-20T02:34:40.023Z,62.15
2019-04-20T02:35:40.420Z,62.15
2019-04-20T02:36:40.357Z,62.25
2019-04-20T02:37:59.866Z,62.15
2019-04-20T02:38:58.399Z,62.15
2019-04-20T02:40:47.671Z,62.55
2019-04-20T02:41:51.436Z,62.59
2019-04-20T02:42:58.014Z,62.27
2019-04-20T02:45:40.756Z,62.79
2019-04-20T02:46:31.212Z,63.00
2019-04-20T02:48:33.718Z,62.90
2019-04-20T02:52:46.062Z,63.51
2019-04-20T02:53:46.602Z,63.62
2019-04-20T02:55:38.098Z,64.24
2019-04-20T02:56:43.151Z,64.14
2019-04-20T02:57:41.878Z,64.55
2019-04-20T02:58:34.847Z,64.14
2019-04-20T02:59:54.236Z,64.14
2019-04-20T03:00:49.541Z,64.45
2019-04-20T03:01:23.322Z,64.55
2019-04-20T03:02:19.037Z,64.76
2019-04-20T03:03:13.420Z,64.45
2019-04-20T03:04:05.438Z,64.65
2019-04-20T03:05:13.372Z,64.34
2019-04-20T03:06:18.491Z,64.24
2019-04-20T03:07:15.702Z,64.45
2019-04-20T03:08:20.261Z,64.17
2019-04-20T03:09:25.471Z,64.24
2019-04-20T03:10:26.514Z,64.24
2019-04-20T03:11:33.291Z,64.78
2019-04-20T03:12:30.395Z,64.76
2019-04-20T03:13:25.370Z,65.09
2019-04-20T03:14:18.573Z,65.72
2019-04-20T03:15:26.448Z,66.13
2019-04-20T03:16:22.184Z,66.33
2019-04-20T03:17:29.681Z,66.44
2019-04-20T03:18:19.727Z,66.13
2019-04-20T03:19:18.675Z,66.23
2019-04-20T03:20:24.430Z,66.03
2019-04-20T03:21:24.842Z,66.23
2019-04-20T03:22:35.282Z,66.54
2019-04-20T03:24:29.551Z,66.57
2019-04-20T03:25:24.212Z,66.99
2019-04-20T03:26:22.532Z,67.09
2019-04-20T03:27:19.473Z,67.09
2019-04-20T03:28:21.955Z,67.30
2019-04-20T03:29:18.843Z,67.19
2019-04-20T03:31:05.581Z,66.88
2019-04-20T03:31:41.536Z,66.99
2019-04-20T03:33:47.498Z,67.50
2019-04-20T03:34:48.696Z,67.54
2019-04-20T03:35:23.929Z,67.82
2019-04-20T03:36:25.142Z,67.95
2019-04-20T03:37:26.702Z,67.95
2019-04-20T03:38:20.210Z,68.67
2019-04-20T03:39:22.696Z,68.46
2019-04-20T03:40:19.158Z,68.46
2019-04-20T03:41:16.163Z,68.57
2019-04-20T03:42:03.665Z,68.98
2019-04-20T03:43:02.005Z,69.19
2019-04-20T03:44:07.662Z,69.40
2019-04-20T03:45:08.665Z,69.09
2019-04-20T03:46:07.798Z,69.50
2019-04-20T03:47:06.848Z,69.84
2019-04-20T03:48:14.116Z,70.26
2019-04-20T03:49:20.255Z,70.26
2019-04-20T03:50:27.314Z,70.05
2019-04-20T03:51:27.927Z,70.15
2019-04-20T03:52:19.205Z,70.26
2019-04-20T03:53:31.083Z,70.01
2019-04-20T03:54:16.044Z,70.26
2019-04-20T03:55:24.310Z,70.47
2019-04-20T03:56:26.814Z,70.15
2019-04-20T03:57:26.543Z,70.26
2019-04-20T03:58:19.785Z,70.57
2019-04-20T03:59:16.199Z,70.67
2019-04-20T04:00:21.943Z,70.47
2019-04-20T04:01:33.089Z,70.26
2019-04-20T04:02:29.876Z,70.77
2019-04-20T04:03:31.749Z,71.08
2019-04-20T04:04:25.462Z,71.29
2019-04-20T04:05:19.207Z,71.29
2019-04-20T04:06:12.365Z,71.60
2019-04-20T04:07:12.197Z,72.22
2019-04-20T04:08:12.173Z,72.22
2019-04-20T04:09:10.222Z,72.22
2019-04-20T04:10:16.879Z,72.22
2019-04-20T04:11:19.977Z,71.91
2019-04-20T04:12:12.201Z,72.12
2019-04-20T04:13:01.190Z,71.81
2019-04-20T04:14:00.755Z,72.53
2019-04-20T04:15:00.175Z,71.91
2019-04-20T04:16:04.894Z,71.81
2019-04-20T04:17:02.970Z,71.91
2019-04-20T04:18:05.991Z,72.33
2019-04-20T04:19:11.889Z,72.22
2019-04-20T04:20:08.120Z,72.22
2019-04-20T04:21:07.924Z,72.12
2019-04-20T04:22:12.450Z,72.12
2019-04-20T04:23:19.582Z,72.02
2019-04-20T04:24:12.896Z,72.02
2019-04-20T04:25:14.829Z,71.91
2019-04-20T04:26:20.410Z,71.81
2019-04-20T04:27:16.168Z,71.70
2019-04-20T04:28:13.752Z,71.81
2019-04-20T04:29:25.711Z,72.43
2019-04-20T04:30:14.916Z,72.22
2019-04-20T04:31:20.396Z,72.94
2019-04-20T04:32:33.282Z,72.94
2019-04-20T04:33:40.282Z,73.05
2019-04-20T04:34:20.954Z,73.57
2019-04-20T04:35:14.173Z,73.25
2019-04-20T04:36:17.710Z,73.57
2019-04-20T04:37:20.211Z,73.67
2019-04-20T04:39:20.989Z,73.43
2019-04-20T04:40:25.331Z,72.60
2019-04-20T04:42:22.619Z,73.33
2019-04-20T04:43:19.789Z,73.74
2019-04-20T04:44:15.126Z,73.54
2019-04-20T04:45:06.236Z,72.50
2019-04-20T04:46:01.720Z,72.78
2019-04-20T04:47:04.769Z,72.60
2019-04-20T04:48:01.990Z,72.57
2019-04-20T04:49:08.441Z,73.39
2019-04-20T04:50:11.051Z,72.78
2019-04-20T04:51:08.379Z,72.57
2019-04-20T04:52:06.185Z,72.26
2019-04-20T04:53:09.093Z,72.16
2019-04-20T04:54:12.921Z,72.36
2019-04-20T04:55:12.124Z,72.36
2019-04-20T04:56:07.379Z,72.33
2019-04-20T04:57:01.143Z,71.71
2019-04-20T04:58:00.209Z,72.12
2019-04-20T04:59:00.302Z,71.98
2019-04-20T04:59:59.682Z,71.98
2019-04-20T05:01:07.353Z,72.09
2019-04-20T05:02:02.148Z,72.09
2019-04-20T05:03:07.004Z,72.09
2019-04-20T05:04:23.251Z,71.78
2019-04-20T05:05:25.463Z,71.88
2019-04-20T05:06:19.728Z,71.57
2019-04-20T05:07:11.409Z,71.92
2019-04-20T05:08:10.105Z,72.30
2019-04-20T05:09:05.255Z,72.50
2019-04-20T05:10:01.213Z,71.67
2019-04-20T05:11:00.628Z,71.98
2019-04-20T05:12:05.432Z,71.95
2019-04-20T05:13:00.831Z,72.16
2019-04-20T05:14:04.952Z,71.85
2019-04-20T05:15:07.932Z,71.75
2019-04-20T05:16:16.799Z,72.47
2019-04-20T05:17:15.106Z,71.85
2019-04-20T05:18:20.578Z,71.85
2019-04-20T05:19:24.732Z,71.92
2019-04-20T05:20:18.095Z,71.92
2019-04-20T05:21:23.022Z,71.51
2019-04-20T05:22:19.371Z,71.81
2019-04-20T05:23:19.085Z,71.30
2019-04-20T05:24:17.918Z,71.30
2019-04-20T05:25:21.569Z,71.41
2019-04-20T05:26:19.989Z,71.41
2019-04-20T05:27:20.760Z,71.47
2019-04-20T05:28:13.122Z,71.26
2019-04-20T05:29:08.560Z,71.26
2019-04-20T05:30:01.255Z,71.89
2019-04-20T05:31:02.959Z,71.99
2019-04-20T05:32:08.116Z,71.95
2019-04-20T05:33:07.821Z,71.34
2019-04-20T05:35:21.543Z,71.41
2019-04-20T05:36:18.694Z,70.48
2019-04-20T05:37:29.074Z,70.89
2019-04-20T05:38:22.985Z,70.89
2019-04-20T05:39:26.841Z,71.30
2019-04-20T05:40:22.296Z,71.17
2019-04-20T05:41:16.949Z,70.24
2019-04-20T05:42:28.462Z,70.48
2019-04-20T05:43:24.611Z,70.28
2019-04-20T05:44:16.480Z,70.28
2019-04-20T05:45:18.169Z,69.96
2019-04-20T05:46:22.064Z,71.30
2019-04-20T05:47:23.825Z,70.89
2019-04-20T05:48:16.462Z,70.45
2019-04-20T05:49:23.362Z,70.07
2019-04-20T05:50:16.523Z,70.34
2019-04-20T05:51:26.876Z,70.45
2019-04-20T05:52:42.584Z,69.83
2019-04-20T05:53:19.319Z,70.00
2019-04-20T05:54:23.564Z,69.79
2019-04-20T05:55:20.833Z,69.90
2019-04-20T05:56:22.242Z,69.79
2019-04-20T05:57:25.061Z,69.79
2019-04-20T05:58:24.636Z,69.76
2019-04-20T05:59:19.214Z,69.76
2019-04-20T06:00:21.813Z,68.84
2019-04-20T06:01:22.854Z,69.04
2019-04-20T06:02:25.011Z,69.22
2019-04-20T06:03:22.817Z,68.91
2019-04-20T06:04:28.668Z,68.19
2019-04-20T06:05:21.941Z,67.98
2019-04-20T06:06:22.077Z,67.75
2019-04-20T06:07:26.016Z,67.13
2019-04-20T06:08:34.256Z,67.65
2019-04-20T06:09:24.051Z,67.44
2019-04-20T06:10:22.229Z,67.65
2019-04-20T06:11:22.180Z,67.20
2019-04-20T06:12:22.362Z,66.69
2019-04-20T06:13:15.960Z,66.76
2019-04-20T06:14:08.165Z,66.86
2019-04-20T06:15:13.229Z,66.25
2019-04-20T06:16:14.195Z,66.42
2019-04-20T06:17:20.920Z,66.52
2019-04-20T06:18:16.307Z,65.67
2019-04-20T06:19:26.408Z,65.39
2019-04-20T06:20:20.258Z,64.75
2019-04-20T06:21:24.975Z,64.95
2019-04-20T06:22:27.208Z,64.34
2019-04-20T06:23:24.143Z,65.16
2019-04-20T06:24:26.823Z,65.06
2019-04-20T06:25:40.818Z,64.44
2019-04-20T06:27:21.534Z,64.10
2019-04-20T06:28:20.349Z,63.59
2019-04-20T06:29:16.342Z,63.49
2019-04-20T06:30:14.084Z,63.66
2019-04-20T06:31:26.485Z,63.56
2019-04-20T06:32:28.563Z,62.12
2019-04-20T06:33:31.307Z,62.92
2019-04-20T06:35:33.616Z,62.07
2019-04-20T06:36:27.580Z,62.27
2019-04-20T06:37:17.944Z,61.55
2019-04-20T06:38:34.830Z,61.55
2019-04-20T06:39:24.140Z,60.40
2019-04-20T06:40:37.286Z,61.22
2019-04-20T06:41:33.037Z,60.50
2019-04-20T06:42:18.004Z,60.50
2019-04-20T06:43:19.172Z,60.68
2019-04-20T06:44:29.164Z,60.47
2019-04-20T06:45:27.713Z,60.03
2019-04-20T06:46:24.813Z,59.94
2019-04-20T06:47:21.277Z,60.03
2019-04-20T06:48:29.408Z,59.53
2019-04-20T06:50:20.033Z,59.50
2019-04-20T06:51:22.392Z,59.19
2019-04-20T06:52:26.211Z,58.75
2019-04-20T06:53:20.504Z,57.93
2019-04-20T06:54:11.433Z,57.93
2019-04-20T06:55:14.160Z,57.73
2019-04-20T06:56:24.322Z,58.04
2019-04-20T06:57:21.297Z,57.93
2019-04-20T06:58:36.435Z,58.04
2019-04-20T06:59:26.520Z,57.81
2019-04-20T07:00:30.560Z,58.22
2019-04-20T07:01:23.490Z,57.78
2019-04-20T07:02:23.516Z,57.27
2019-04-20T07:03:38.418Z,57.24
2019-04-20T07:04:39.791Z,57.14
2019-04-20T07:05:22.494Z,57.24
2019-04-20T07:06:36.410Z,56.73
2019-04-20T07:07:37.279Z,56.43
2019-04-20T07:08:33.540Z,55.89
2019-04-20T07:09:23.458Z,54.87
2019-04-20T07:11:23.893Z,56.27
2019-04-20T07:12:17.078Z,55.48
2019-04-20T07:13:12.829Z,55.58
2019-04-20T07:14:06.062Z,55.56
2019-04-20T07:15:19.507Z,55.07
2019-04-20T07:16:22.597Z,54.87
2019-04-20T07:18:37.573Z,55.66
2019-04-20T07:19:31.358Z,55.76
2019-04-20T07:20:35.138Z,55.53
2019-04-20T07:21:48.394Z,54.11
2019-04-20T07:22:33.773Z,54.41
2019-04-20T07:23:38.618Z,54.18
2019-04-20T07:24:35.099Z,54.00
2019-04-20T07:25:33.175Z,54.51
2019-04-20T07:26:38.636Z,54.03
2019-04-20T07:27:34.161Z,55.43
2019-04-20T07:28:35.350Z,54.11
2019-04-20T07:29:37.023Z,54.69
2019-04-20T07:30:32.470Z,53.78
2019-04-20T07:31:32.050Z,53.75
2019-04-20T07:32:23.407Z,54.03
2019-04-20T07:33:34.944Z,53.11
2019-04-20T07:34:26.606Z,53.02
2019-04-20T07:35:30.536Z,52.58
2019-04-20T07:36:32.412Z,51.87
2019-04-20T07:38:36.584Z,51.34
2019-04-20T07:39:33.100Z,52.33
2019-04-20T07:40:34.781Z,52.53
2019-04-20T07:41:43.560Z,51.92
2019-04-20T07:42:35.223Z,51.31
2019-04-20T07:43:34.858Z,50.68
2019-04-20T07:44:36.396Z,51.09
2019-04-20T07:45:37.619Z,50.25
2019-04-20T07:46:40.703Z,50.25
2019-04-20T07:47:34.701Z,50.15
2019-04-20T07:48:25.785Z,50.35
2019-04-20T07:49:32.617Z,50.04
2019-04-20T07:50:26.281Z,50.76
2019-04-20T07:51:19.393Z,51.06
2019-04-20T07:52:10.281Z,50.23
2019-04-20T07:53:28.390Z,50.12
2019-04-20T07:54:40.191Z,50.00
2019-04-20T07:55:39.096Z,49.80
2019-04-20T07:56:30.403Z,50.08
2019-04-20T07:57:25.669Z,50.18
2019-04-20T07:58:22.743Z,48.96
2019-04-20T07:59:22.257Z,48.74
2019-04-20T08:00:38.287Z,48.74
2019-04-20T08:01:38.473Z,48.21
2019-04-20T08:02:38.114Z,48.00
2019-04-20T08:03:33.679Z,47.88
2019-04-20T08:04:28.786Z,47.58
2019-04-20T08:05:22.783Z,47.70
2019-04-20T08:06:17.521Z,48.00
2019-04-20T08:07:12.387Z,48.00
2019-04-20T08:08:30.462Z,47.27
2019-04-20T08:09:21.956Z,47.58
2019-04-20T08:10:18.919Z,47.15
2019-04-20T08:11:32.095Z,47.39
2019-04-20T08:12:37.702Z,47.62
2019-04-20T08:14:30.670Z,48.33
2019-04-20T08:15:46.193Z,47.72
2019-04-20T08:16:41.014Z,47.70
2019-04-20T08:17:42.268Z,47.60
2019-04-20T08:18:35.096Z,46.97
2019-04-20T08:19:31.627Z,46.46
2019-04-20T08:20:27.995Z,47.07
2019-04-20T08:21:33.338Z,47.38
2019-04-20T08:22:35.467Z,46.69
2019-04-20T08:23:30.219Z,46.67
2019-04-20T08:24:27.888Z,46.95
2019-04-20T08:25:23.507Z,47.05
2019-04-20T08:26:18.208Z,46.75
2019-04-20T08:27:12.384Z,47.03
2019-04-20T08:28:17.813Z,46.01
2019-04-20T08:29:18.855Z,46.01
2019-04-20T08:30:23.052Z,45.29
2019-04-20T08:31:28.873Z,45.49
2019-04-20T08:32:30.717Z,45.59
2019-04-20T08:33:28.083Z,45.47
2019-04-20T08:34:31.182Z,45.57
2019-04-20T08:35:32.202Z,45.39
2019-04-20T08:36:36.021Z,45.81
2019-04-20T08:37:26.128Z,45.89
2019-04-20T08:38:57.815Z,45.79
2019-04-20T08:39:55.881Z,45.99
2019-04-20T08:40:36.054Z,44.96
2019-04-20T08:41:25.032Z,45.97
2019-04-20T08:42:30.717Z,45.14
2019-04-20T08:43:43.655Z,45.25
2019-04-20T08:44:47.050Z,45.34
2019-04-20T08:45:36.105Z,45.75
2019-04-20T08:46:37.814Z,45.22
2019-04-20T08:48:28.683Z,44.62
2019-04-20T08:49:36.127Z,44.11
2019-04-20T08:50:27.212Z,42.58
2019-04-20T08:51:34.694Z,42.49
2019-04-20T08:52:48.332Z,42.90
2019-04-20T08:53:30.687Z,42.90
2019-04-20T08:54:27.655Z,43.08
2019-04-20T08:55:26.646Z,43.38
2019-04-20T08:56:21.997Z,43.08
2019-04-20T08:57:09.141Z,43.28
2019-04-20T08:58:09.166Z,43.06
2019-04-20T08:59:09.341Z,42.46
2019-04-20T09:00:09.042Z,42.80
2019-04-20T09:01:10.277Z,44.05
2019-04-20T09:02:13.018Z,44.13
2019-04-20T09:03:17.316Z,44.35
2019-04-20T09:04:15.340Z,44.94
2019-04-20T09:05:18.645Z,44.01
2019-04-20T09:06:22.383Z,44.09
2019-04-20T09:07:17.517Z,43.48
2019-04-20T09:08:17.410Z,42.88
2019-04-20T09:09:40.324Z,42.86
2019-04-20T09:10:34.472Z,43.06
2019-04-20T09:11:25.029Z,43.37
2019-04-20T09:12:30.526Z,43.06
2019-04-20T09:13:20.818Z,42.24
2019-04-20T09:14:09.340Z,41.83
2019-04-20T09:15:08.272Z,42.21
2019-04-20T09:16:08.738Z,41.71
2019-04-20T09:17:11.328Z,41.49
2019-04-20T09:18:20.968Z,41.29
2019-04-20T09:19:12.950Z,40.26
2019-04-20T09:20:14.275Z,40.69
2019-04-20T09:21:23.375Z,40.66
2019-04-20T09:22:16.130Z,39.76
2019-04-20T09:23:23.881Z,40.26
2019-04-20T09:24:36.599Z,39.36
2019-04-20T09:26:26.936Z,39.98
2019-04-20T09:27:21.872Z,40.78
2019-04-20T09:28:19.829Z,40.08
2019-04-20T09:29:21.884Z,40.38
2019-04-20T09:30:25.657Z,39.98
2019-04-20T09:31:21.258Z,40.18
2019-04-20T09:32:23.193Z,40.48
2019-04-20T09:33:31.827Z,40.28
2019-04-20T09:34:24.650Z,39.79
2019-04-20T09:35:26.645Z,40.92
2019-04-20T09:36:24.217Z,40.82
2019-04-20T09:37:27.911Z,40.70
2019-04-20T09:38:22.136Z,40.20
2019-04-20T09:39:18.638Z,39.78
2019-04-20T09:40:29.294Z,39.07
2019-04-20T09:41:34.922Z,39.37
2019-04-20T09:42:08.315Z,38.45
2019-04-20T09:43:08.686Z,38.43
2019-04-20T09:44:07.329Z,38.43
2019-04-20T09:45:08.305Z,37.61
2019-04-20T09:46:08.878Z,37.81
2019-04-20T09:47:09.169Z,37.21
2019-04-20T09:48:16.616Z,37.29
2019-04-20T09:49:20.100Z,35.98
2019-04-20T09:50:25.054Z,36.49
2019-04-20T09:51:24.450Z,36.36
2019-04-20T09:52:17.335Z,35.36
2019-04-20T09:53:29.887Z,35.78
2019-04-20T09:54:26.750Z,33.79
2019-04-20T09:56:39.774Z,33.48
2019-04-20T09:57:50.176Z,32.18
2019-04-20T09:59:53.732Z,33.89
2019-04-20T10:02:13.188Z,32.06
2019-04-20T10:03:04.505Z,33.27
2019-04-20T10:04:03.549Z,32.97
2019-04-20T10:05:03.509Z,32.17
2019-04-20T10:06:03.521Z,33.05
2019-04-20T10:07:11.191Z,32.24
2019-04-20T10:08:06.761Z,32.73
2019-04-20T10:09:05.160Z,31.33
2019-04-20T10:10:23.899Z,32.03
2019-04-20T10:11:05.631Z,33.44
2019-04-20T10:12:03.809Z,32.93
2019-04-20T10:13:05.595Z,33.72
2019-04-20T10:14:03.980Z,31.63
2019-04-20T10:15:12.191Z,32.03
2019-04-20T10:16:04.364Z,31.45
2019-04-20T10:17:03.338Z,31.76
2019-04-20T10:18:12.148Z,32.24
2019-04-20T10:19:03.363Z,31.65
2019-04-20T10:20:24.360Z,31.65
2019-04-20T10:21:05.443Z,32.84
2019-04-20T10:22:04.560Z,31.53
2019-04-20T10:23:04.574Z,31.23
2019-04-20T10:24:03.269Z,29.72
2019-04-20T10:25:04.471Z,30.34
2019-04-20T10:26:04.648Z,31.24
2019-04-20T10:28:21.438Z,30.84
2019-04-20T10:29:21.538Z,31.23
2019-04-20T10:30:20.742Z,31.63
2019-04-20T10:31:20.433Z,30.61
2019-04-20T10:32:21.498Z,30.32
2019-04-20T10:33:21.724Z,30.93
2019-04-20T10:34:23.660Z,30.44
2019-04-20T10:35:21.076Z,31.33
2019-04-20T10:36:21.468Z,31.13
2019-04-20T10:37:20.153Z,31.13
2019-04-20T10:38:21.436Z,31.41
2019-04-20T10:39:20.396Z,31.01
2019-04-20T10:40:34.424Z,30.19
2019-04-20T10:41:33.913Z,30.11
2019-04-20T10:42:21.138Z,29.90
2019-04-20T10:43:20.037Z,30.50
2019-04-20T10:44:20.936Z,29.79
2019-04-20T10:45:21.285Z,30.10
2019-04-20T10:46:20.744Z,29.29
2019-04-20T10:47:21.131Z,29.19
2019-04-20T10:48:21.361Z,29.29
2019-04-20T10:49:19.973Z,29.29
2019-04-20T10:50:20.925Z,29.68
2019-04-20T10:51:19.958Z,29.28
2019-04-20T10:52:20.051Z,28.48
2019-04-20T10:53:19.975Z,28.48
2019-04-20T10:54:20.470Z,28.58
2019-04-20T10:55:20.766Z,28.67
2019-04-20T10:56:21.248Z,26.87
2019-04-20T10:57:19.870Z,25.57
2019-04-20T10:58:19.872Z,24.87
2019-04-20T10:59:19.862Z,25.37
2019-04-20T11:00:19.846Z,25.07
2019-04-20T11:01:19.975Z,23.75
2019-04-20T11:02:19.834Z,24.76
2019-04-20T11:03:19.810Z,25.35
2019-04-20T11:04:20.891Z,25.56
2019-04-20T11:05:20.412Z,25.84
2019-04-20T11:06:20.568Z,25.34
2019-04-20T11:07:20.735Z,25.45
2019-04-20T11:08:20.356Z,25.43
2019-04-20T11:09:20.709Z,27.23
2019-04-20T11:10:25.269Z,27.33
2019-04-20T11:11:26.500Z,25.43
2019-04-20T11:12:22.067Z,24.54
2019-04-20T11:13:19.709Z,25.84
2019-04-20T11:14:26.369Z,26.45
2019-04-20T11:15:20.975Z,25.34
2019-04-20T11:16:20.206Z,25.34
2019-04-20T11:17:20.426Z,24.93
2019-04-20T11:18:19.753Z,25.14
2019-04-20T11:19:21.126Z,25.45
2019-04-20T11:20:19.643Z,25.45
2019-04-20T11:21:19.705Z,25.14
2019-04-20T11:22:20.092Z,25.46
2019-04-20T11:23:20.371Z,25.35
2019-04-20T11:24:20.488Z,25.35
2019-04-20T11:25:19.925Z,23.55
2019-04-20T11:26:20.256Z,24.96
2019-04-20T11:27:20.540Z,25.66
2019-04-20T11:28:19.875Z,25.05
2019-04-20T11:29:20.105Z,24.55
2019-04-20T11:30:20.372Z,25.46
2019-04-20T11:31:20.031Z,25.35
2019-04-20T11:32:20.197Z,25.45
2019-04-20T11:33:20.380Z,25.74
2019-04-20T11:34:23.615Z,26.45
2019-04-20T11:35:27.822Z,27.14
2019-04-20T11:36:21.233Z,26.03
2019-04-20T11:37:19.458Z,26.53
2019-04-20T11:38:19.733Z,27.23
2019-04-20T11:39:20.813Z,27.44
2019-04-20T11:40:19.424Z,26.82
2019-04-20T11:41:25.659Z,27.12
2019-04-20T11:42:21.740Z,26.82
2019-04-20T11:43:19.826Z,26.52
2019-04-20T11:44:19.987Z,26.92
2019-04-20T11:45:20.570Z,27.31
2019-04-20T11:46:20.596Z,27.11
2019-04-20T11:47:19.391Z,27.81
2019-04-20T11:48:19.407Z,27.41
2019-04-20T11:49:19.498Z,27.51
2019-04-20T11:50:19.856Z,27.41
2019-04-20T11:51:19.326Z,26.71
2019-04-20T11:52:21.399Z,27.11
2019-04-20T11:53:19.459Z,25.51
2019-04-20T11:54:19.309Z,26.52
2019-04-20T11:55:20.176Z,26.21
2019-04-20T11:56:23.916Z,26.10
2019-04-20T11:57:21.333Z,26.21
2019-04-20T11:58:19.716Z,26.32
2019-04-20T11:59:19.258Z,26.32
2019-04-20T12:00:21.965Z,26.21
2019-04-20T12:01:22.558Z,26.41
2019-04-20T12:02:26.920Z,26.31
2019-04-20T12:03:27.965Z,26.51
2019-04-20T12:04:34.031Z,26.01
2019-04-20T12:05:31.583Z,26.01
2019-04-20T12:06:21.147Z,26.21
2019-04-20T12:07:19.284Z,26.40
2019-04-20T12:08:19.131Z,26.29
2019-04-20T12:09:19.141Z,25.98
2019-04-20T12:10:22.306Z,25.98
2019-04-20T12:11:30.392Z,25.66
2019-04-20T12:12:29.990Z,24.92
2019-04-20T12:13:20.547Z,23.48
2019-04-20T12:14:19.084Z,22.95
2019-04-20T12:15:19.065Z,22.44
2019-04-20T12:16:19.372Z,21.52
2019-04-20T12:17:19.651Z,21.70
2019-04-20T12:18:19.828Z,20.98
2019-04-20T12:19:19.068Z,19.87
2019-04-20T12:20:19.056Z,19.26
2019-04-20T12:21:19.217Z,19.26
2019-04-20T12:22:19.014Z,19.66
2019-04-20T12:23:20.127Z,20.08
2019-04-20T12:24:20.385Z,18.90
2019-04-20T12:25:20.380Z,19.09
2019-04-20T12:26:18.960Z,19.67
2019-04-20T12:27:18.960Z,19.55
2019-04-20T12:28:19.868Z,18.57
2019-04-20T12:29:19.561Z,18.79
2019-04-20T12:30:19.622Z,18.88
2019-04-20T12:31:22.800Z,19.29
2019-04-20T12:32:19.910Z,19.42
2019-04-20T12:33:18.873Z,20.78
2019-04-20T12:34:20.167Z,19.09
2019-04-20T12:35:20.062Z,19.67
2019-04-20T12:36:18.878Z,18.26
2019-04-20T12:37:18.903Z,17.55
2019-04-20T12:38:19.178Z,17.83
2019-04-20T12:39:19.299Z,16.93
2019-04-20T12:40:19.899Z,16.90
2019-04-20T12:41:31.125Z,16.31
2019-04-20T12:42:21.108Z,16.20
2019-04-20T12:43:19.071Z,15.99
2019-04-20T12:44:19.714Z,15.98
2019-04-20T12:45:19.646Z,15.69
2019-04-20T12:46:21.409Z,14.90
2019-04-20T12:47:19.630Z,15.69
2019-04-20T12:48:19.747Z,15.69
2019-04-20T12:49:19.887Z,15.69
2019-04-20T12:50:19.358Z,15.59
2019-04-20T12:51:19.635Z,15.01
2019-04-20T12:52:18.687Z,15.42
2019-04-20T12:53:18.688Z,15.84
2019-04-20T12:54:18.669Z,17.42
2019-04-20T12:55:18.844Z,17.60
2019-04-20T12:56:18.745Z,15.75
2019-04-20T12:57:18.674Z,16.83
2019-04-20T12:58:18.707Z,16.63
2019-04-20T12:59:18.616Z,16.92
2019-04-20T13:00:19.489Z,15.34
2019-04-20T13:01:21.071Z,16.42
2019-04-20T13:02:19.598Z,16.20
2019-04-20T13:03:19.403Z,15.59
2019-04-20T13:04:18.576Z,15.77
2019-04-20T13:05:19.559Z,14.50
2019-04-20T13:06:19.603Z,14.70
2019-04-20T13:07:19.630Z,14.51
2019-04-20T13:08:28.540Z,14.71
2019-04-20T13:09:20.829Z,14.73
2019-04-20T13:10:18.505Z,15.61
2019-04-20T13:11:18.510Z,15.60
2019-04-20T13:12:19.401Z,15.19
2019-04-20T13:13:18.601Z,15.09
2019-04-20T13:14:18.499Z,15.28
2019-04-20T13:15:18.447Z,14.77
2019-04-20T13:16:18.505Z,14.48
2019-04-20T13:17:18.448Z,14.77
2019-04-20T13:18:19.089Z,14.78
2019-04-20T13:19:19.294Z,14.68